sensor_id;sensor_type;location;lat;lon;timestamp;P1;durP1;ratioP1;P2;durP2;ratioP2
72926;SDS011;61071;51.618;19.388;2023-03-03T00:01:28;35.90;;;23.70;;
72926;SDS011;61071;51.618;19.388;2023-03-03T00:03:56;36.97;;;23.05;;
72926;SDS011;61071;51.618;19.388;2023-03-03T00:06:22;39.50;;;23.80;;
72926;SDS011;61071;51.618;19.388;2023-03-03T00:08:49;36.60;;;24.50;;
72926;SDS011;61071;51.618;19.388;2023-03-03T00:11:15;38.88;;;23.38;;
72926;SDS011;61071;51.618;19.388;2023-03-03T00:16:20;35.58;;;23.75;;
72926;SDS011;61071;51.618;19.388;2023-03-03T00:18:56;38.50;;;23.42;;
72926;SDS011;61071;51.618;19.388;2023-03-03T00:21:32;37.47;;;24.58;;
72926;SDS011;61071;51.618;19.388;2023-03-03T00:29:22;39.15;;;24.23;;
72926;SDS011;61071;51.618;19.388;2023-03-03T00:34:36;29.00;;;20.13;;
72926;SDS011;61071;51.618;19.388;2023-03-03T00:37:02;29.23;;;19.60;;
72926;SDS011;61071;51.618;19.388;2023-03-03T00:39:41;28.67;;;19.90;;
72926;SDS011;61071;51.618;19.388;2023-03-03T00:42:11;29.95;;;21.20;;
72926;SDS011;61071;51.618;19.388;2023-03-03T00:44:40;29.02;;;20.00;;
72926;SDS011;61071;51.618;19.388;2023-03-03T00:47:28;27.67;;;20.33;;
72926;SDS011;61071;51.618;19.388;2023-03-03T00:52:32;27.58;;;18.60;;
72926;SDS011;61071;51.618;19.388;2023-03-03T00:55:02;24.85;;;18.30;;
72926;SDS011;61071;51.618;19.388;2023-03-03T00:57:29;28.55;;;18.00;;
72926;SDS011;61071;51.618;19.388;2023-03-03T00:59:55;28.58;;;18.65;;
72926;SDS011;61071;51.618;19.388;2023-03-03T01:02:21;29.38;;;18.00;;
72926;SDS011;61071;51.618;19.388;2023-03-03T01:04:51;23.58;;;17.70;;
72926;SDS011;61071;51.618;19.388;2023-03-03T01:07:20;26.90;;;18.60;;
72926;SDS011;61071;51.618;19.388;2023-03-03T01:09:46;26.02;;;18.05;;
72926;SDS011;61071;51.618;19.388;2023-03-03T01:12:12;24.88;;;18.08;;
72926;SDS011;61071;51.618;19.388;2023-03-03T01:14:38;25.05;;;18.10;;
72926;SDS011;61071;51.618;19.388;2023-03-03T01:17:04;25.58;;;18.25;;
72926;SDS011;61071;51.618;19.388;2023-03-03T01:19:31;28.40;;;18.13;;
72926;SDS011;61071;51.618;19.388;2023-03-03T01:22:00;26.88;;;18.30;;
72926;SDS011;61071;51.618;19.388;2023-03-03T01:24:25;25.95;;;18.05;;
72926;SDS011;61071;51.618;19.388;2023-03-03T01:26:51;25.90;;;17.75;;
72926;SDS011;61071;51.618;19.388;2023-03-03T01:29:17;27.88;;;19.23;;
72926;SDS011;61071;51.618;19.388;2023-03-03T01:31:42;25.83;;;17.73;;
72926;SDS011;61071;51.618;19.388;2023-03-03T01:34:08;24.90;;;17.83;;
72926;SDS011;61071;51.618;19.388;2023-03-03T01:36:34;28.77;;;18.75;;
72926;SDS011;61071;51.618;19.388;2023-03-03T01:39:01;23.92;;;17.55;;
72926;SDS011;61071;51.618;19.388;2023-03-03T01:41:27;26.70;;;18.27;;
72926;SDS011;61071;51.618;19.388;2023-03-03T01:43:56;26.05;;;17.38;;
72926;SDS011;61071;51.618;19.388;2023-03-03T01:48:48;23.75;;;17.00;;
72926;SDS011;61071;51.618;19.388;2023-03-03T01:51:25;24.13;;;18.17;;
72926;SDS011;61071;51.618;19.388;2023-03-03T01:54:03;28.77;;;19.00;;
72926;SDS011;61071;51.618;19.388;2023-03-03T01:56:38;27.77;;;17.98;;
72926;SDS011;61071;51.618;19.388;2023-03-03T01:59:13;32.72;;;18.60;;
72926;SDS011;61071;51.618;19.388;2023-03-03T02:01:55;28.83;;;18.30;;
72926;SDS011;61071;51.618;19.388;2023-03-03T02:04:21;26.73;;;18.38;;
72926;SDS011;61071;51.618;19.388;2023-03-03T02:06:51;27.05;;;18.23;;
72926;SDS011;61071;51.618;19.388;2023-03-03T02:12:07;28.05;;;18.98;;
72926;SDS011;61071;51.618;19.388;2023-03-03T02:14:38;26.65;;;17.55;;
72926;SDS011;61071;51.618;19.388;2023-03-03T02:17:03;27.55;;;19.20;;
72926;SDS011;61071;51.618;19.388;2023-03-03T02:25:29;24.23;;;17.38;;
72926;SDS011;61071;51.618;19.388;2023-03-03T02:28:06;33.33;;;18.08;;
72926;SDS011;61071;51.618;19.388;2023-03-03T02:30:35;25.77;;;18.38;;
72926;SDS011;61071;51.618;19.388;2023-03-03T02:33:04;34.88;;;21.30;;
72926;SDS011;61071;51.618;19.388;2023-03-03T02:35:33;25.48;;;18.25;;
72926;SDS011;61071;51.618;19.388;2023-03-03T02:40:54;27.38;;;17.67;;
72926;SDS011;61071;51.618;19.388;2023-03-03T02:44:12;27.07;;;18.17;;
72926;SDS011;61071;51.618;19.388;2023-03-03T02:46:40;26.25;;;18.05;;
72926;SDS011;61071;51.618;19.388;2023-03-03T02:49:10;31.27;;;18.83;;
72926;SDS011;61071;51.618;19.388;2023-03-03T02:51:39;27.42;;;19.23;;
72926;SDS011;61071;51.618;19.388;2023-03-03T02:54:06;29.38;;;18.13;;
72926;SDS011;61071;51.618;19.388;2023-03-03T02:56:33;31.65;;;19.05;;
72926;SDS011;61071;51.618;19.388;2023-03-03T02:58:59;29.65;;;18.25;;
72926;SDS011;61071;51.618;19.388;2023-03-03T03:01:25;25.40;;;17.00;;
72926;SDS011;61071;51.618;19.388;2023-03-03T03:03:51;32.78;;;19.20;;
72926;SDS011;61071;51.618;19.388;2023-03-03T03:06:17;29.55;;;17.80;;
72926;SDS011;61071;51.618;19.388;2023-03-03T03:08:43;25.77;;;16.95;;
72926;SDS011;61071;51.618;19.388;2023-03-03T03:11:08;28.52;;;18.15;;
72926;SDS011;61071;51.618;19.388;2023-03-03T03:13:34;30.45;;;18.48;;
72926;SDS011;61071;51.618;19.388;2023-03-03T03:16:00;28.45;;;17.63;;
72926;SDS011;61071;51.618;19.388;2023-03-03T03:18:26;25.70;;;15.68;;
72926;SDS011;61071;51.618;19.388;2023-03-03T03:20:52;28.15;;;18.85;;
72926;SDS011;61071;51.618;19.388;2023-03-03T03:23:18;29.27;;;18.45;;
72926;SDS011;61071;51.618;19.388;2023-03-03T03:25:46;27.38;;;18.48;;
72926;SDS011;61071;51.618;19.388;2023-03-03T03:28:13;29.92;;;19.15;;
72926;SDS011;61071;51.618;19.388;2023-03-03T03:30:41;32.30;;;19.55;;
72926;SDS011;61071;51.618;19.388;2023-03-03T03:33:08;28.85;;;18.30;;
72926;SDS011;61071;51.618;19.388;2023-03-03T03:35:34;30.17;;;18.90;;
72926;SDS011;61071;51.618;19.388;2023-03-03T03:38:01;28.45;;;18.70;;
72926;SDS011;61071;51.618;19.388;2023-03-03T03:40:27;25.75;;;17.33;;
72926;SDS011;61071;51.618;19.388;2023-03-03T03:42:53;28.10;;;19.30;;
72926;SDS011;61071;51.618;19.388;2023-03-03T03:45:19;27.25;;;18.20;;
72926;SDS011;61071;51.618;19.388;2023-03-03T03:47:45;26.13;;;18.15;;
72926;SDS011;61071;51.618;19.388;2023-03-03T03:50:12;28.25;;;18.52;;
72926;SDS011;61071;51.618;19.388;2023-03-03T03:52:38;31.13;;;19.35;;
72926;SDS011;61071;51.618;19.388;2023-03-03T03:55:04;28.90;;;18.30;;
72926;SDS011;61071;51.618;19.388;2023-03-03T03:57:30;29.52;;;18.52;;
72926;SDS011;61071;51.618;19.388;2023-03-03T03:59:55;27.60;;;18.13;;
72926;SDS011;61071;51.618;19.388;2023-03-03T04:02:21;28.90;;;20.27;;
72926;SDS011;61071;51.618;19.388;2023-03-03T04:04:47;30.13;;;17.38;;
72926;SDS011;61071;51.618;19.388;2023-03-03T04:07:13;27.00;;;17.27;;
72926;SDS011;61071;51.618;19.388;2023-03-03T04:09:38;25.67;;;16.95;;
72926;SDS011;61071;51.618;19.388;2023-03-03T04:12:04;30.15;;;20.25;;
72926;SDS011;61071;51.618;19.388;2023-03-03T04:14:30;28.52;;;18.35;;
72926;SDS011;61071;51.618;19.388;2023-03-03T04:16:56;29.55;;;18.58;;
72926;SDS011;61071;51.618;19.388;2023-03-03T04:19:22;28.85;;;19.30;;
72926;SDS011;61071;51.618;19.388;2023-03-03T04:21:47;27.25;;;17.52;;
72926;SDS011;61071;51.618;19.388;2023-03-03T04:24:13;25.02;;;17.33;;
72926;SDS011;61071;51.618;19.388;2023-03-03T04:26:39;30.00;;;18.02;;
72926;SDS011;61071;51.618;19.388;2023-03-03T04:29:04;28.48;;;18.63;;
72926;SDS011;61071;51.618;19.388;2023-03-03T04:31:30;29.20;;;19.60;;
72926;SDS011;61071;51.618;19.388;2023-03-03T04:33:56;27.98;;;18.92;;
72926;SDS011;61071;51.618;19.388;2023-03-03T04:36:22;27.40;;;18.63;;
72926;SDS011;61071;51.618;19.388;2023-03-03T04:38:48;28.88;;;19.25;;
72926;SDS011;61071;51.618;19.388;2023-03-03T04:41:14;28.05;;;18.67;;
72926;SDS011;61071;51.618;19.388;2023-03-03T04:43:40;26.17;;;17.63;;
72926;SDS011;61071;51.618;19.388;2023-03-03T04:46:06;27.13;;;18.02;;
72926;SDS011;61071;51.618;19.388;2023-03-03T04:48:31;24.92;;;16.38;;
72926;SDS011;61071;51.618;19.388;2023-03-03T04:50:57;25.92;;;17.08;;
72926;SDS011;61071;51.618;19.388;2023-03-03T04:53:23;29.17;;;19.25;;
72926;SDS011;61071;51.618;19.388;2023-03-03T04:55:49;27.33;;;18.10;;
72926;SDS011;61071;51.618;19.388;2023-03-03T04:58:19;27.88;;;17.65;;
72926;SDS011;61071;51.618;19.388;2023-03-03T05:00:46;31.15;;;18.23;;
72926;SDS011;61071;51.618;19.388;2023-03-03T05:03:18;27.08;;;17.98;;
72926;SDS011;61071;51.618;19.388;2023-03-03T05:05:45;29.60;;;18.30;;
72926;SDS011;61071;51.618;19.388;2023-03-03T05:08:12;30.13;;;18.42;;
72926;SDS011;61071;51.618;19.388;2023-03-03T05:10:38;24.80;;;17.70;;
72926;SDS011;61071;51.618;19.388;2023-03-03T05:13:05;28.63;;;16.85;;
72926;SDS011;61071;51.618;19.388;2023-03-03T05:15:32;29.65;;;19.25;;
72926;SDS011;61071;51.618;19.388;2023-03-03T05:17:57;27.27;;;17.55;;
72926;SDS011;61071;51.618;19.388;2023-03-03T05:20:23;28.30;;;19.20;;
72926;SDS011;61071;51.618;19.388;2023-03-03T05:22:50;28.90;;;18.52;;
72926;SDS011;61071;51.618;19.388;2023-03-03T05:25:16;28.23;;;17.30;;
72926;SDS011;61071;51.618;19.388;2023-03-03T05:27:42;28.85;;;19.00;;
72926;SDS011;61071;51.618;19.388;2023-03-03T05:30:08;28.50;;;18.45;;
72926;SDS011;61071;51.618;19.388;2023-03-03T05:32:36;31.33;;;20.10;;
72926;SDS011;61071;51.618;19.388;2023-03-03T05:35:02;31.33;;;20.30;;
72926;SDS011;61071;51.618;19.388;2023-03-03T05:37:29;30.58;;;18.42;;
72926;SDS011;61071;51.618;19.388;2023-03-03T05:39:55;30.98;;;17.98;;
72926;SDS011;61071;51.618;19.388;2023-03-03T05:42:21;66.03;;;35.47;;
72926;SDS011;61071;51.618;19.388;2023-03-03T05:44:46;102.28;;;54.33;;
72926;SDS011;61071;51.618;19.388;2023-03-03T05:47:12;120.70;;;55.25;;
72926;SDS011;61071;51.618;19.388;2023-03-03T05:49:38;172.05;;;76.80;;
72926;SDS011;61071;51.618;19.388;2023-03-03T05:52:04;35.47;;;22.33;;
72926;SDS011;61071;51.618;19.388;2023-03-03T05:54:30;35.13;;;21.35;;
72926;SDS011;61071;51.618;19.388;2023-03-03T05:56:56;32.67;;;20.35;;
72926;SDS011;61071;51.618;19.388;2023-03-03T05:59:22;44.88;;;21.27;;
72926;SDS011;61071;51.618;19.388;2023-03-03T06:01:49;33.65;;;20.13;;
72926;SDS011;61071;51.618;19.388;2023-03-03T06:04:15;39.55;;;22.63;;
72926;SDS011;61071;51.618;19.388;2023-03-03T06:06:41;42.53;;;23.50;;
72926;SDS011;61071;51.618;19.388;2023-03-03T06:09:06;40.05;;;24.63;;
72926;SDS011;61071;51.618;19.388;2023-03-03T06:11:32;36.67;;;22.05;;
72926;SDS011;61071;51.618;19.388;2023-03-03T06:13:57;42.05;;;26.80;;
72926;SDS011;61071;51.618;19.388;2023-03-03T06:16:23;37.65;;;22.38;;
72926;SDS011;61071;51.618;19.388;2023-03-03T06:18:49;43.75;;;24.27;;
72926;SDS011;61071;51.618;19.388;2023-03-03T06:21:15;44.42;;;23.25;;
72926;SDS011;61071;51.618;19.388;2023-03-03T06:23:40;48.83;;;27.80;;
72926;SDS011;61071;51.618;19.388;2023-03-03T06:26:06;52.70;;;28.65;;
72926;SDS011;61071;51.618;19.388;2023-03-03T06:28:32;56.78;;;31.48;;
72926;SDS011;61071;51.618;19.388;2023-03-03T06:30:57;49.08;;;28.17;;
72926;SDS011;61071;51.618;19.388;2023-03-03T06:33:23;69.43;;;42.65;;
72926;SDS011;61071;51.618;19.388;2023-03-03T06:35:49;49.50;;;28.35;;
72926;SDS011;61071;51.618;19.388;2023-03-03T06:38:16;47.78;;;25.30;;
72926;SDS011;61071;51.618;19.388;2023-03-03T06:40:43;49.55;;;27.10;;
72926;SDS011;61071;51.618;19.388;2023-03-03T06:43:10;42.65;;;23.40;;
72926;SDS011;61071;51.618;19.388;2023-03-03T06:45:35;46.65;;;23.98;;
72926;SDS011;61071;51.618;19.388;2023-03-03T06:48:01;43.55;;;23.90;;
72926;SDS011;61071;51.618;19.388;2023-03-03T06:50:27;47.65;;;25.95;;
72926;SDS011;61071;51.618;19.388;2023-03-03T06:52:58;46.97;;;23.98;;
72926;SDS011;61071;51.618;19.388;2023-03-03T06:55:40;39.88;;;22.00;;
72926;SDS011;61071;51.618;19.388;2023-03-03T06:58:13;41.88;;;24.95;;
72926;SDS011;61071;51.618;19.388;2023-03-03T07:00:49;46.90;;;25.30;;
72926;SDS011;61071;51.618;19.388;2023-03-03T07:03:25;46.40;;;24.00;;
72926;SDS011;61071;51.618;19.388;2023-03-03T07:06:00;47.20;;;27.25;;
72926;SDS011;61071;51.618;19.388;2023-03-03T07:08:38;38.20;;;21.45;;
72926;SDS011;61071;51.618;19.388;2023-03-03T07:11:07;42.38;;;24.83;;
72926;SDS011;61071;51.618;19.388;2023-03-03T07:13:41;47.90;;;23.58;;
72926;SDS011;61071;51.618;19.388;2023-03-03T07:16:12;40.65;;;22.65;;
72926;SDS011;61071;51.618;19.388;2023-03-03T07:18:47;40.60;;;22.25;;
72926;SDS011;61071;51.618;19.388;2023-03-03T07:21:19;35.80;;;20.75;;
72926;SDS011;61071;51.618;19.388;2023-03-03T07:23:57;33.55;;;19.58;;
72926;SDS011;61071;51.618;19.388;2023-03-03T07:26:31;30.97;;;19.30;;
72926;SDS011;61071;51.618;19.388;2023-03-03T07:28:58;34.83;;;19.60;;
72926;SDS011;61071;51.618;19.388;2023-03-03T07:31:39;36.55;;;20.02;;
72926;SDS011;61071;51.618;19.388;2023-03-03T07:34:43;39.90;;;20.88;;
72926;SDS011;61071;51.618;19.388;2023-03-03T07:37:17;43.63;;;22.50;;
72926;SDS011;61071;51.618;19.388;2023-03-03T07:39:53;46.17;;;23.58;;
72926;SDS011;61071;51.618;19.388;2023-03-03T07:44:55;42.45;;;24.73;;
72926;SDS011;61071;51.618;19.388;2023-03-03T07:47:25;41.58;;;22.88;;
72926;SDS011;61071;51.618;19.388;2023-03-03T07:49:54;42.88;;;22.38;;
72926;SDS011;61071;51.618;19.388;2023-03-03T08:01:22;31.33;;;18.25;;
72926;SDS011;61071;51.618;19.388;2023-03-03T08:04:15;31.55;;;18.02;;
72926;SDS011;61071;51.618;19.388;2023-03-03T08:15:36;42.50;;;22.30;;
72926;SDS011;61071;51.618;19.388;2023-03-03T08:18:00;43.22;;;22.70;;
72926;SDS011;61071;51.618;19.388;2023-03-03T08:23:08;46.92;;;24.88;;
72926;SDS011;61071;51.618;19.388;2023-03-03T08:25:34;41.50;;;22.58;;
72926;SDS011;61071;51.618;19.388;2023-03-03T08:28:00;54.20;;;32.10;;
72926;SDS011;61071;51.618;19.388;2023-03-03T08:30:26;41.00;;;22.60;;
72926;SDS011;61071;51.618;19.388;2023-03-03T08:32:51;45.05;;;24.05;;
72926;SDS011;61071;51.618;19.388;2023-03-03T08:35:17;44.85;;;24.27;;
72926;SDS011;61071;51.618;19.388;2023-03-03T08:37:42;42.83;;;23.80;;
72926;SDS011;61071;51.618;19.388;2023-03-03T08:40:08;47.88;;;25.38;;
72926;SDS011;61071;51.618;19.388;2023-03-03T08:42:34;49.33;;;24.92;;
72926;SDS011;61071;51.618;19.388;2023-03-03T08:45:00;37.40;;;21.63;;
72926;SDS011;61071;51.618;19.388;2023-03-03T08:47:26;37.28;;;21.42;;
72926;SDS011;61071;51.618;19.388;2023-03-03T08:49:51;32.03;;;18.17;;
72926;SDS011;61071;51.618;19.388;2023-03-03T08:52:18;31.90;;;16.88;;
72926;SDS011;61071;51.618;19.388;2023-03-03T08:54:44;28.02;;;16.70;;
72926;SDS011;61071;51.618;19.388;2023-03-03T08:57:10;31.38;;;19.13;;
72926;SDS011;61071;51.618;19.388;2023-03-03T08:59:35;31.02;;;18.73;;
72926;SDS011;61071;51.618;19.388;2023-03-03T09:02:03;28.17;;;17.70;;
72926;SDS011;61071;51.618;19.388;2023-03-03T09:04:32;31.13;;;17.52;;
72926;SDS011;61071;51.618;19.388;2023-03-03T09:06:58;36.45;;;18.88;;
72926;SDS011;61071;51.618;19.388;2023-03-03T09:09:24;30.48;;;17.77;;
72926;SDS011;61071;51.618;19.388;2023-03-03T09:11:52;29.58;;;17.17;;
72926;SDS011;61071;51.618;19.388;2023-03-03T09:14:23;28.05;;;17.80;;
72926;SDS011;61071;51.618;19.388;2023-03-03T09:16:54;29.27;;;17.77;;
72926;SDS011;61071;51.618;19.388;2023-03-03T09:19:28;32.08;;;18.27;;
72926;SDS011;61071;51.618;19.388;2023-03-03T09:22:01;30.73;;;17.65;;
72926;SDS011;61071;51.618;19.388;2023-03-03T09:24:43;32.45;;;19.45;;
72926;SDS011;61071;51.618;19.388;2023-03-03T09:27:21;34.90;;;18.33;;
72926;SDS011;61071;51.618;19.388;2023-03-03T09:30:10;33.50;;;19.35;;
72926;SDS011;61071;51.618;19.388;2023-03-03T09:32:56;26.55;;;17.60;;
72926;SDS011;61071;51.618;19.388;2023-03-03T09:37:51;35.95;;;18.10;;
72926;SDS011;61071;51.618;19.388;2023-03-03T09:43:12;32.00;;;17.90;;
72926;SDS011;61071;51.618;19.388;2023-03-03T09:48:56;29.98;;;18.42;;
72926;SDS011;61071;51.618;19.388;2023-03-03T09:57:31;33.40;;;19.15;;
72926;SDS011;61071;51.618;19.388;2023-03-03T10:11:53;38.40;;;20.77;;
72926;SDS011;61071;51.618;19.388;2023-03-03T10:20:29;41.78;;;22.75;;
72926;SDS011;61071;51.618;19.388;2023-03-03T10:35:53;46.65;;;25.50;;
72926;SDS011;61071;51.618;19.388;2023-03-03T11:08:02;46.75;;;27.85;;
72926;SDS011;61071;51.618;19.388;2023-03-03T11:11:28;39.22;;;23.70;;
72926;SDS011;61071;51.618;19.388;2023-03-03T11:22:52;45.65;;;26.40;;
72926;SDS011;61071;51.618;19.388;2023-03-03T11:25:49;43.97;;;26.60;;
72926;SDS011;61071;51.618;19.388;2023-03-03T11:28:25;50.75;;;27.25;;
72926;SDS011;61071;51.618;19.388;2023-03-03T11:37:08;45.72;;;26.52;;
72926;SDS011;61071;51.618;19.388;2023-03-03T11:39:41;46.80;;;24.35;;
72926;SDS011;61071;51.618;19.388;2023-03-03T11:50:47;38.92;;;22.13;;
72926;SDS011;61071;51.618;19.388;2023-03-03T12:04:55;41.80;;;24.00;;
72926;SDS011;61071;51.618;19.388;2023-03-03T12:07:56;38.28;;;23.33;;
72926;SDS011;61071;51.618;19.388;2023-03-03T12:16:58;45.45;;;25.98;;
72926;SDS011;61071;51.618;19.388;2023-03-03T12:25:22;33.03;;;21.70;;
72926;SDS011;61071;51.618;19.388;2023-03-03T12:33:54;40.90;;;23.73;;
72926;SDS011;61071;51.618;19.388;2023-03-03T12:36:46;37.10;;;22.75;;
72926;SDS011;61071;51.618;19.388;2023-03-03T12:43:06;38.90;;;23.55;;
72926;SDS011;61071;51.618;19.388;2023-03-03T12:45:55;33.75;;;21.95;;
72926;SDS011;61071;51.618;19.388;2023-03-03T12:51:13;36.75;;;22.95;;
72926;SDS011;61071;51.618;19.388;2023-03-03T12:56:54;37.42;;;23.75;;
72926;SDS011;61071;51.618;19.388;2023-03-03T13:11:51;40.35;;;24.33;;
72926;SDS011;61071;51.618;19.388;2023-03-03T13:14:30;38.88;;;24.95;;
72926;SDS011;61071;51.618;19.388;2023-03-03T13:19:58;37.30;;;23.25;;
72926;SDS011;61071;51.618;19.388;2023-03-03T13:25:33;34.33;;;22.40;;
72926;SDS011;61071;51.618;19.388;2023-03-03T13:31:20;36.92;;;22.65;;
72926;SDS011;61071;51.618;19.388;2023-03-03T13:33:53;37.35;;;24.75;;
72926;SDS011;61071;51.618;19.388;2023-03-03T13:36:23;38.97;;;24.33;;
72926;SDS011;61071;51.618;19.388;2023-03-03T13:39:07;36.50;;;24.52;;
72926;SDS011;61071;51.618;19.388;2023-03-03T13:41:49;40.70;;;24.70;;
72926;SDS011;61071;51.618;19.388;2023-03-03T13:44:24;38.97;;;23.67;;
72926;SDS011;61071;51.618;19.388;2023-03-03T13:50:19;44.25;;;26.65;;
72926;SDS011;61071;51.618;19.388;2023-03-03T13:53:05;44.33;;;25.88;;
72926;SDS011;61071;51.618;19.388;2023-03-03T14:03:10;36.03;;;23.23;;
72926;SDS011;61071;51.618;19.388;2023-03-03T14:05:45;30.35;;;20.83;;
72926;SDS011;61071;51.618;19.388;2023-03-03T14:20:27;39.38;;;25.50;;
72926;SDS011;61071;51.618;19.388;2023-03-03T14:23:08;39.65;;;24.77;;
72926;SDS011;61071;51.618;19.388;2023-03-03T14:28:28;41.42;;;26.77;;
72926;SDS011;61071;51.618;19.388;2023-03-03T14:36:37;34.53;;;22.45;;
72926;SDS011;61071;51.618;19.388;2023-03-03T14:39:38;37.50;;;23.40;;
72926;SDS011;61071;51.618;19.388;2023-03-03T14:42:11;39.75;;;23.67;;
72926;SDS011;61071;51.618;19.388;2023-03-03T14:44:55;38.95;;;26.13;;
72926;SDS011;61071;51.618;19.388;2023-03-03T14:47:26;35.88;;;23.90;;
72926;SDS011;61071;51.618;19.388;2023-03-03T14:49:54;41.42;;;25.98;;
72926;SDS011;61071;51.618;19.388;2023-03-03T14:52:27;40.45;;;24.90;;
72926;SDS011;61071;51.618;19.388;2023-03-03T14:54:58;44.58;;;25.45;;
72926;SDS011;61071;51.618;19.388;2023-03-03T15:00:28;41.40;;;25.40;;
72926;SDS011;61071;51.618;19.388;2023-03-03T15:03:01;39.40;;;25.42;;
72926;SDS011;61071;51.618;19.388;2023-03-03T15:08:13;40.67;;;25.13;;
72926;SDS011;61071;51.618;19.388;2023-03-03T15:10:40;43.00;;;24.48;;
72926;SDS011;61071;51.618;19.388;2023-03-03T15:18:24;41.30;;;23.73;;
72926;SDS011;61071;51.618;19.388;2023-03-03T15:21:17;39.25;;;24.60;;
72926;SDS011;61071;51.618;19.388;2023-03-03T15:29:28;40.50;;;24.98;;
72926;SDS011;61071;51.618;19.388;2023-03-03T15:32:23;38.00;;;25.35;;
72926;SDS011;61071;51.618;19.388;2023-03-03T15:35:01;46.22;;;26.38;;
72926;SDS011;61071;51.618;19.388;2023-03-03T15:37:51;43.15;;;27.63;;
72926;SDS011;61071;51.618;19.388;2023-03-03T15:40:25;33.70;;;21.75;;
72926;SDS011;61071;51.618;19.388;2023-03-03T15:43:27;35.50;;;21.08;;
72926;SDS011;61071;51.618;19.388;2023-03-03T15:46:14;34.45;;;19.65;;
72926;SDS011;61071;51.618;19.388;2023-03-03T15:49:03;41.03;;;22.25;;
72926;SDS011;61071;51.618;19.388;2023-03-03T15:57:47;41.88;;;25.52;;
72926;SDS011;61071;51.618;19.388;2023-03-03T16:00:26;45.67;;;25.90;;
72926;SDS011;61071;51.618;19.388;2023-03-03T16:03:32;43.20;;;24.75;;
72926;SDS011;61071;51.618;19.388;2023-03-03T16:12:16;34.08;;;22.23;;
72926;SDS011;61071;51.618;19.388;2023-03-03T16:15:24;33.47;;;22.83;;
72926;SDS011;61071;51.618;19.388;2023-03-03T16:18:35;37.00;;;22.45;;
72926;SDS011;61071;51.618;19.388;2023-03-03T16:24:57;33.47;;;21.60;;
72926;SDS011;61071;51.618;19.388;2023-03-03T16:39:02;44.78;;;23.40;;
72926;SDS011;61071;51.618;19.388;2023-03-03T16:41:48;38.72;;;23.05;;
72926;SDS011;61071;51.618;19.388;2023-03-03T16:44:51;39.85;;;23.23;;
72926;SDS011;61071;51.618;19.388;2023-03-03T16:55:52;39.35;;;23.73;;
72926;SDS011;61071;51.618;19.388;2023-03-03T16:58:43;41.15;;;25.20;;
72926;SDS011;61071;51.618;19.388;2023-03-03T17:04:00;52.42;;;31.92;;
72926;SDS011;61071;51.618;19.388;2023-03-03T17:27:16;43.97;;;26.92;;
72926;SDS011;61071;51.618;19.388;2023-03-03T17:47:46;41.85;;;27.08;;
72926;SDS011;61071;51.618;19.388;2023-03-03T17:58:50;53.55;;;37.20;;
72926;SDS011;61071;51.618;19.388;2023-03-03T18:01:59;35.45;;;23.23;;
72926;SDS011;61071;51.618;19.388;2023-03-03T18:05:07;51.70;;;34.53;;
72926;SDS011;61071;51.618;19.388;2023-03-03T18:08:02;47.53;;;30.63;;
72926;SDS011;61071;51.618;19.388;2023-03-03T18:11:21;51.25;;;31.35;;
72926;SDS011;61071;51.618;19.388;2023-03-03T18:20:29;42.08;;;27.00;;
72926;SDS011;61071;51.618;19.388;2023-03-03T18:26:27;32.35;;;23.05;;
72926;SDS011;61071;51.618;19.388;2023-03-03T18:34:33;38.83;;;24.60;;
72926;SDS011;61071;51.618;19.388;2023-03-03T18:42:31;33.45;;;22.38;;
72926;SDS011;61071;51.618;19.388;2023-03-03T18:50:32;35.33;;;25.60;;
72926;SDS011;61071;51.618;19.388;2023-03-03T19:00:46;35.92;;;24.63;;
72926;SDS011;61071;51.618;19.388;2023-03-03T19:03:34;37.05;;;25.48;;
72926;SDS011;61071;51.618;19.388;2023-03-03T19:06:31;33.63;;;22.63;;
72926;SDS011;61071;51.618;19.388;2023-03-03T19:17:56;31.95;;;21.00;;
72926;SDS011;61071;51.618;19.388;2023-03-03T19:20:44;29.85;;;20.73;;
72926;SDS011;61071;51.618;19.388;2023-03-03T19:23:49;38.92;;;23.27;;
72926;SDS011;61071;51.618;19.388;2023-03-03T19:47:19;40.97;;;26.88;;
72926;SDS011;61071;51.618;19.388;2023-03-03T19:50:18;31.52;;;21.13;;
72926;SDS011;61071;51.618;19.388;2023-03-03T20:01:39;30.42;;;21.33;;
72926;SDS011;61071;51.618;19.388;2023-03-03T20:07:39;29.80;;;19.98;;
72926;SDS011;61071;51.618;19.388;2023-03-03T20:13:31;30.38;;;19.75;;
72926;SDS011;61071;51.618;19.388;2023-03-03T20:16:36;29.65;;;19.90;;
72926;SDS011;61071;51.618;19.388;2023-03-03T20:31:23;26.85;;;18.60;;
72926;SDS011;61071;51.618;19.388;2023-03-03T20:37:44;34.63;;;21.23;;
72926;SDS011;61071;51.618;19.388;2023-03-03T20:40:37;32.42;;;19.90;;
72926;SDS011;61071;51.618;19.388;2023-03-03T20:53:00;34.85;;;20.73;;
72926;SDS011;61071;51.618;19.388;2023-03-03T21:01:35;30.37;;;18.10;;
72926;SDS011;61071;51.618;19.388;2023-03-03T21:04:32;27.35;;;17.85;;
72926;SDS011;61071;51.618;19.388;2023-03-03T21:07:01;31.48;;;18.77;;
72926;SDS011;61071;51.618;19.388;2023-03-03T21:09:35;31.73;;;19.85;;
72926;SDS011;61071;51.618;19.388;2023-03-03T21:12:36;32.53;;;20.83;;
72926;SDS011;61071;51.618;19.388;2023-03-03T21:15:02;34.92;;;23.17;;
72926;SDS011;61071;51.618;19.388;2023-03-03T21:17:35;37.92;;;22.85;;
72926;SDS011;61071;51.618;19.388;2023-03-03T21:22:52;38.80;;;23.58;;
72926;SDS011;61071;51.618;19.388;2023-03-03T21:31:04;31.67;;;18.30;;
72926;SDS011;61071;51.618;19.388;2023-03-03T21:33:44;32.78;;;17.52;;
72926;SDS011;61071;51.618;19.388;2023-03-03T21:36:15;28.60;;;18.42;;
72926;SDS011;61071;51.618;19.388;2023-03-03T21:38:48;30.50;;;18.48;;
72926;SDS011;61071;51.618;19.388;2023-03-03T21:41:18;29.50;;;19.45;;
72926;SDS011;61071;51.618;19.388;2023-03-03T21:43:46;29.92;;;20.73;;
72926;SDS011;61071;51.618;19.388;2023-03-03T21:46:20;34.40;;;21.70;;
72926;SDS011;61071;51.618;19.388;2023-03-03T21:48:49;33.78;;;20.65;;
72926;SDS011;61071;51.618;19.388;2023-03-03T21:51:16;36.90;;;21.77;;
72926;SDS011;61071;51.618;19.388;2023-03-03T21:53:44;32.70;;;21.20;;
72926;SDS011;61071;51.618;19.388;2023-03-03T21:56:11;30.73;;;20.92;;
72926;SDS011;61071;51.618;19.388;2023-03-03T21:58:40;31.10;;;20.75;;
72926;SDS011;61071;51.618;19.388;2023-03-03T22:01:07;32.55;;;21.63;;
72926;SDS011;61071;51.618;19.388;2023-03-03T22:03:33;35.63;;;21.23;;
72926;SDS011;61071;51.618;19.388;2023-03-03T22:06:00;29.92;;;20.80;;
72926;SDS011;61071;51.618;19.388;2023-03-03T22:08:29;33.72;;;22.02;;
72926;SDS011;61071;51.618;19.388;2023-03-03T22:10:54;30.98;;;20.08;;
72926;SDS011;61071;51.618;19.388;2023-03-03T22:13:29;28.55;;;19.10;;
72926;SDS011;61071;51.618;19.388;2023-03-03T22:15:54;30.85;;;18.85;;
72926;SDS011;61071;51.618;19.388;2023-03-03T22:18:20;23.80;;;15.55;;
72926;SDS011;61071;51.618;19.388;2023-03-03T22:20:46;27.27;;;18.58;;
72926;SDS011;61071;51.618;19.388;2023-03-03T22:23:13;25.23;;;17.10;;